Fancy Farm, Kentucky
Current Conditions -  °F | °C
As of 11:35 AM on Friday 24 Oct 2014 (Local Time) from KM25 Reporting Station
Clear Clear  
Wind Chill: 63°   Ceiling: Unl
Heat Index: 63°   Visibility: 10mi
Dew Point: 50°   Wind: 3mph
Humidity: 63%   Direction: 330°NNW
Pressure: 30.14"   Gusts: NA
Location:  36.8°N, 88.79°W
Report Text: KM25 241635Z AUTO 33003KT 10SM CLR 17/10 A3014 RMK AO2
Loading
Personal Weather Stations






























Interactive Weather Map
Tropical Storm Tracking
New forecast layout! Learn more

10-Day Weather Forecast

Advertisements
Track Severe Weather on mobile